• Join FlightAware (Why Join?)
  • Login
  • US Flag 
12:17AM EDT


 

Airport Tracker/Info


-or-


 

Live Flight TrackerFlight Track Log ✈ ASQ5685 ✈ 27-Jul-2013 ✈ KATL - KIAD

Flight Track Log - Related Links

Times and Time Zones

All times are in EDT time to prevent confusion due to time zone crossing. See the ASQ5685 flight status page for this flight to view local times or setup timezone preferences in your user account.

Time Position Orientation Groundspeed Altitude Reporting Facility
EDT Latitude Longitude Course Direction KTS MPH feet Rate Location/Type
09:35AM 33.6286 -84.4853 53° Northeast 392 451 2,500  Level Atlanta Center
09:36AM 33.6011 -84.5575 245° Southwest 272 313 4,500 2,160 Climbing Atlanta Center
09:37AM 33.5300 -84.5894 201° Southwest 243 280 6,900 2,280 Climbing Atlanta Center
09:38AM 33.7674 -83.9490 54° Northeast  Level FlightAware Approximate
09:38AM 33.4614 -84.5417 150° Southeast 292 336 9,100  Level Atlanta Center
09:39AM 33.8283 -83.8474 54° Northeast  Level FlightAware Approximate
09:40AM 33.8925 -83.7489 48° Northeast  Level FlightAware Approximate
09:40AM 33.4558 -84.3375 92° East 333 383 12,200  Level Atlanta Center
09:41AM 33.9576 -83.6512 53° Northeast  Level FlightAware Approximate
09:41AM 33.5103 -84.2406 56° Northeast 343 395 13,400  Level Atlanta Center
09:42AM 33.6042 -84.1811 28° Northeast 343 395 14,900 1,500 Climbing Atlanta Center
09:43AM 33.6961 -84.1186 29° Northeast 365 420 16,400 1,200 Climbing Atlanta Center
09:44AM 33.7692 -84.0239 47° Northeast 377 434 17,400 960 Climbing Atlanta Center
09:45AM 33.8297 -83.9114 57° Northeast 384 442 18,400 900 Climbing Atlanta Center
09:46AM 33.8858 -83.7936 60° Northeast 399 459 19,200 660 Climbing Atlanta Center
09:47AM 33.9522 -83.6756 56° Northeast 417 480 19,800 600 Climbing Atlanta Center
09:48AM 34.0250 -83.5625 52° Northeast 423 487 20,500 660 Climbing Atlanta Center
09:49AM 34.0975 -83.4442 53° Northeast 429 494 21,200 720 Climbing Atlanta Center
09:50AM 34.1678 -83.3308 53° Northeast 429 494 22,000 600 Climbing Atlanta Center
09:51AM 34.2339 -83.2272 52° Northeast 429 494 22,500 600 Climbing Atlanta Center
09:52AM 34.3042 -83.1108 54° Northeast 429 494 23,300 720 Climbing Atlanta Center
09:53AM 34.3742 -82.9944 54° Northeast 434 499 24,000 660 Climbing Atlanta Center
09:54AM 34.4461 -82.8800 53° Northeast 429 494 24,700 660 Climbing Atlanta Center
09:55AM 34.5181 -82.7681 52° Northeast 419 482 25,400 600 Climbing Atlanta Center
09:56AM 34.5878 -82.6561 53° Northeast 414 476 25,900 480 Climbing Atlanta Center
09:57AM 34.6575 -82.5464 52° Northeast 414 476 26,400 480 Climbing Atlanta Center
09:58AM 34.7292 -82.4314 53° Northeast 414 476 26,900 300 Climbing Atlanta Center
09:59AM 34.7986 -82.3111 55° Northeast 421 484 27,000  Climbing Atlanta Center
10:00AM 34.8678 -82.2008 53° Northeast 421 484 27,000  Level Atlanta Center
10:01AM 34.9369 -82.0903 53° Northeast 415 478 27,000 -60 Level Atlanta Center
10:02AM 35.0042 -81.9747 55° Northeast 415 478 26,900  Descending Atlanta Center
10:03AM 35.0625 -81.8592 58° Northeast 409 471 27,000  Climbing Atlanta Center
10:04AM 35.1081 -81.7283 67° East 404 465 27,000  Level Atlanta Center
10:05AM 35.1556 -81.5925 67° East 399 459 27,000  Level Atlanta Center
10:06AM 35.1967 -81.4642 69° East 399 459 27,000  Level Atlanta Center
10:07AM 35.2506 -81.3403 62° Northeast 399 459 27,000  Level Atlanta Center
10:08AM 35.3169 -81.2314 53° Northeast 392 451 27,000  Level Atlanta Center
10:09AM 35.3831 -81.1194 54° Northeast 404 465 27,000  Level Atlanta Center
10:10AM 35.4492 -81.0075 54° Northeast 409 471 27,000  Level Atlanta Center
10:12AM 35.5502 -80.9109 58° Northeast  Level Estimated
10:12AM 35.5811 -80.7806 58° Northeast 409 471 27,000  Level Atlanta Center
10:13AM 35.6469 -80.6681 54° Northeast 409 471 27,000  Level Atlanta Center
10:14AM 35.7125 -80.5553 54° Northeast 409 471 27,000  Level Atlanta Center
10:16AM 35.8364 -80.3422 54° Northeast 404 465 27,000  Level Washington Center
10:17AM 35.9036 -80.2233 55° Northeast 411 473 27,000  Level Washington Center
10:18AM 35.9728 -80.1042 54° Northeast 411 473 27,000  Level Washington Center
10:19AM 36.0397 -79.9922 53° Northeast 412 474 27,000  Level Washington Center
10:20AM 36.1189 -79.8811 49° Northeast 417 480 27,000  Level Washington Center
10:21AM 36.1806 -79.7917 49° Northeast 417 480 27,000  Level Washington Center
10:22AM 36.2728 -79.6575 50° Northeast 433 498 27,000  Level Washington Center
10:23AM 36.3450 -79.5556 49° Northeast 433 498 27,000  Level Washington Center
10:24AM 36.4283 -79.4306 50° Northeast 427 491 27,000  Level Washington Center
10:25AM 36.5003 -79.3308 48° Northeast 427 491 27,000  Level Washington Center
10:26AM 36.5811 -79.2158 49° Northeast 427 491 27,000  Level Washington Center
10:27AM 36.6508 -79.1206 48° Northeast 427 491 27,000  Level Washington Center
10:28AM 36.7358 -78.9922 50° Northeast 427 491 27,000 -300 Level Washington Center
10:29AM 36.8250 -78.8639 49° Northeast 432 497 26,400 -600 Descending Washington Center
10:30AM 36.9075 -78.7453 49° Northeast 437 503 25,900 -540 Descending Washington Center
10:31AM 36.9900 -78.6214 50° Northeast 449 517 25,400 -480 Descending Washington Center
10:32AM 37.0678 -78.5097 49° Northeast 456 525 25,000 -240 Descending Washington Center
10:33AM 37.1497 -78.3931 49° Northeast 456 525 25,000 -180 Level Washington Center
10:34AM 37.2542 -78.2978 36° Northeast 448 516 24,700 -1,200 Descending Washington Center
10:35AM 37.3711 -78.1947 35° Northeast 458 527 22,700 -1,380 Descending Washington Center
10:36AM 37.4628 -78.1089 37° Northeast 464 534 22,000 -1,380 Descending Washington Center
10:37AM 37.5650 -78.0128 37° Northeast 458 527 20,000 -1,980 Descending Washington Center
10:38AM 37.6625 -77.9239 36° Northeast 452 520 18,100 -1,920 Descending Washington Center
10:39AM 37.7558 -77.8403 35° Northeast 432 497 16,300 -1,860 Descending Washington Center
10:40AM 37.8450 -77.7586 36° Northeast 410 472 14,400 -1,920 Descending Washington Center
10:41AM 37.9300 -77.6794 36° Northeast 391 450 12,500 -1,920 Descending Washington Center
10:42AM 38.0147 -77.5975 37° Northeast 379 436 10,600 -1,260 Descending Washington Center
10:43AM 38.0908 -77.5336 33° Northeast 355 409 10,000 -360 Descending Washington Center
10:44AM 38.1586 -77.4692 37° Northeast 323 372 10,000  Level Washington Center
10:45AM 38.2303 -77.4183 29° Northeast 303 349 10,000 -300 Level Washington Center
10:46AM 38.3078 -77.3883 17° North 291 335 9,500 -1,020 Descending Washington Center
10:47AM 38.3914 -77.3797 North 286 329 8,000 -1,440 Descending Washington Center
10:48AM 38.4747 -77.3764 North 291 335 6,600 -1,320 Descending Washington Center
10:49AM 38.5522 -77.3678 North 286 329 5,400 -1,020 Descending Washington Center
10:50AM 38.6333 -77.3667 North 274 315 4,700 -780 Descending Potomac TRACON
10:51AM 38.7000 -77.3667 360° North 292 336 4,000 -360 Descending Potomac TRACON
10:52AM 38.7833 -77.3500 North 287 330 4,000 -420 Level Potomac TRACON
10:53AM 38.8667 -77.3500 360° North 286 329 3,200 -540 Descending Potomac TRACON
10:54AM 38.9500 -77.3500 360° North 272 313 3,000 -180 Descending Potomac TRACON
10:55AM 39.0167 -77.3500 360° North 217 250 2,900 -540 Descending Potomac TRACON
10:56AM 39.0667 -77.3667 345° North 211 243 2,000 -600 Descending Potomac TRACON
10:57AM 39.0500 -77.4167 247° West 174 200 1,800 -360 Descending Potomac TRACON
10:58AM 39.0000 -77.4333 195° South 174 200 1,300 -600 Descending Potomac TRACON
10:59AM 38.9667 -77.4333 180° South 134 154 600 -720 Descending Potomac TRACON